createdAt,value
2022-10-11T00:00:54.272Z,100129.53
2022-10-11T00:03:35.872Z,100117.56
2022-10-11T00:06:17.709Z,100120.16
2022-10-11T00:08:58.725Z,100126.97
2022-10-11T00:11:40.219Z,100119.28
2022-10-11T00:14:21.380Z,100129.53
2022-10-11T00:17:02.950Z,100131.22
2022-10-11T00:19:44.344Z,100137.22
2022-10-11T00:22:25.697Z,100119.28
2022-10-11T00:25:09.680Z,100128.69
2022-10-11T00:27:50.571Z,100122.69
2022-10-11T00:30:31.542Z,100120.16
2022-10-11T00:33:12.817Z,100119.28
2022-10-11T00:35:54.287Z,100122.72
2022-10-11T00:38:36.115Z,100124.44
2022-10-11T00:41:17.988Z,100120.16
2022-10-11T00:44:12.119Z,100117.59
2022-10-11T00:46:58.782Z,100113.34
2022-10-11T00:49:44.318Z,100118.47
2022-10-11T00:52:32.068Z,100125.25
2022-10-11T00:55:19.247Z,100124.41
2022-10-11T00:58:00.882Z,100115.03
2022-10-11T01:00:42.043Z,100115.03
2022-10-11T01:03:28.620Z,100109.06
2022-10-11T01:06:10.348Z,100115.88
2022-10-11T01:08:53.622Z,100115.00
2022-10-11T01:11:43.851Z,100126.97
2022-10-11T01:14:44.522Z,100123.56
2022-10-11T01:17:34.691Z,100122.69
2022-10-11T01:20:36.820Z,100121.84
2022-10-11T01:23:51.189Z,100117.56
2022-10-11T01:27:07.382Z,100112.47
2022-10-11T01:29:57.692Z,100099.66
2022-10-11T01:32:49.267Z,100099.69
2022-10-11T01:35:38.803Z,100092.84
2022-10-11T01:38:28.451Z,100092.84
2022-10-11T01:41:15.393Z,100098.81
2022-10-11T01:44:00.466Z,100102.22
2022-10-11T01:46:42.343Z,100097.13
2022-10-11T01:49:23.365Z,100107.34
2022-10-11T01:52:07.343Z,100104.75
2022-10-11T01:55:10.305Z,100103.09
2022-10-11T01:58:09.559Z,100101.38
2022-10-11T02:00:59.590Z,100106.50
2022-10-11T02:03:48.455Z,100104.78
2022-10-11T02:06:35.950Z,100099.69
2022-10-11T02:09:25.926Z,100098.81
2022-10-11T02:12:11.634Z,100094.56
2022-10-11T02:14:57.962Z,100092.84
2022-10-11T02:17:44.792Z,100106.50
2022-10-11T02:20:30.022Z,100104.81
2022-10-11T02:23:14.946Z,100098.81
2022-10-11T02:25:57.782Z,100096.28
2022-10-11T02:28:43.235Z,100096.28
2022-10-11T02:31:27.194Z,100099.69
2022-10-11T02:34:14.095Z,100106.50
2022-10-11T02:37:03.756Z,100092.00
2022-10-11T02:39:49.885Z,100092.00
2022-10-11T02:42:37.688Z,100097.13
2022-10-11T02:45:25.884Z,100086.06
2022-10-11T02:48:10.252Z,100083.47
2022-10-11T02:50:51.753Z,100092.88
2022-10-11T02:53:34.334Z,100090.31
2022-10-11T02:56:16.138Z,100101.38
2022-10-11T02:58:57.582Z,100094.56
2022-10-11T03:01:39.027Z,100101.41
2022-10-11T03:04:20.358Z,100109.91
2022-10-11T03:07:01.727Z,100111.63
2022-10-11T03:09:43.125Z,100107.38
2022-10-11T03:12:24.599Z,100109.91
2022-10-11T03:15:06.842Z,100115.03
2022-10-11T03:17:47.336Z,100103.09
2022-10-11T03:20:28.946Z,100113.34
2022-10-11T03:23:10.226Z,100115.03
2022-10-11T03:25:52.286Z,100120.16
2022-10-11T03:28:33.208Z,100123.56
2022-10-11T03:31:14.304Z,100126.13
2022-10-11T03:33:55.703Z,100128.69
2022-10-11T03:36:37.213Z,100112.47
2022-10-11T03:39:18.735Z,100125.25
2022-10-11T03:41:59.938Z,100119.28
2022-10-11T03:44:42.472Z,100108.22
2022-10-11T03:47:11.653Z,100126.13
2022-10-11T03:49:43.666Z,100119.28
2022-10-11T03:52:13.174Z,100115.91
2022-10-11T03:54:41.817Z,100108.19
2022-10-11T03:57:10.440Z,100115.03
2022-10-11T03:59:40.500Z,100117.59
2022-10-11T04:02:09.246Z,100127.81
2022-10-11T04:04:37.898Z,100130.38
2022-10-11T04:07:06.653Z,100132.94
2022-10-11T04:09:36.345Z,100136.34
2022-10-11T04:12:05.093Z,100138.06
2022-10-11T04:14:33.687Z,100132.09
2022-10-11T04:17:03.743Z,100135.50
2022-10-11T04:19:32.414Z,100119.31
2022-10-11T04:22:00.922Z,100137.19
2022-10-11T04:24:29.717Z,100131.25
2022-10-11T04:26:58.493Z,100134.63
2022-10-11T04:29:32.185Z,100130.41
2022-10-11T04:32:01.643Z,100138.91
2022-10-11T04:34:31.678Z,100138.91
2022-10-11T04:37:00.343Z,100130.38
2022-10-11T04:39:28.928Z,100135.50
2022-10-11T04:41:57.698Z,100138.91
2022-10-11T04:44:26.305Z,100141.47
2022-10-11T04:46:56.237Z,100148.25
2022-10-11T04:49:38.798Z,100145.72
2022-10-11T04:52:23.416Z,100146.56
2022-10-11T04:55:07.258Z,100149.97
2022-10-11T04:57:47.743Z,100149.09
2022-10-11T05:00:29.166Z,100117.56
2022-10-11T05:03:10.547Z,100154.25
2022-10-11T05:05:53.048Z,100155.13
2022-10-11T05:08:35.155Z,100159.34
2022-10-11T05:11:17.196Z,100159.34
2022-10-11T05:13:58.052Z,100159.38
2022-10-11T05:16:39.209Z,100164.47
2022-10-11T05:19:20.595Z,100161.09
2022-10-11T05:22:01.946Z,100164.47
2022-10-11T05:24:43.353Z,100171.28
2022-10-11T05:27:24.752Z,100171.28
2022-10-11T05:30:07.693Z,100171.28
2022-10-11T05:32:49.168Z,100184.09
2022-10-11T05:35:30.386Z,100183.22
2022-10-11T05:38:12.196Z,100180.69
2022-10-11T05:40:53.468Z,100189.19
2022-10-11T05:43:34.877Z,100191.78
2022-10-11T05:46:16.277Z,100184.94
2022-10-11T05:48:57.508Z,100183.25
2022-10-11T05:51:26.470Z,100196.91
2022-10-11T05:53:55.056Z,100186.69
2022-10-11T05:56:26.379Z,100188.38
2022-10-11T05:58:58.778Z,100197.78
2022-10-11T06:01:31.247Z,100193.50
2022-10-11T06:04:01.300Z,100193.53
2022-10-11T06:06:29.962Z,100195.22
2022-10-11T06:08:58.576Z,100203.75
2022-10-11T06:11:28.931Z,100209.72
2022-10-11T06:13:59.378Z,100212.28
2022-10-11T06:16:28.489Z,100213.16
2022-10-11T06:18:58.127Z,100212.28
2022-10-11T06:21:28.129Z,100214.00
2022-10-11T06:24:01.056Z,100212.28
2022-10-11T06:26:30.944Z,100212.31
2022-10-11T06:28:59.767Z,100213.16
2022-10-11T06:31:28.612Z,100214.84
2022-10-11T06:33:57.215Z,100215.72
2022-10-11T06:36:27.378Z,100214.00
2022-10-11T06:38:56.908Z,100215.69
2022-10-11T06:41:28.781Z,100223.41
2022-10-11T06:43:58.147Z,100217.44
2022-10-11T06:46:29.420Z,100219.97
2022-10-11T06:48:58.494Z,100220.81
2022-10-11T06:51:52.702Z,100221.66
2022-10-11T06:54:45.003Z,100225.94
2022-10-11T06:57:37.385Z,100220.81
2022-10-11T07:00:28.170Z,100221.69
2022-10-11T07:03:23.075Z,100230.22
2022-10-11T07:06:23.052Z,100230.22
2022-10-11T07:09:13.917Z,100233.63
2022-10-11T07:12:09.891Z,100235.31
2022-10-11T07:14:59.898Z,100234.44
2022-10-11T07:17:49.980Z,100242.16
2022-10-11T07:20:44.970Z,100237.88
2022-10-11T07:23:39.322Z,100241.28
2022-10-11T07:26:37.639Z,100242.97
2022-10-11T07:29:29.947Z,100244.63
2022-10-11T07:32:21.081Z,100246.31
2022-10-11T07:35:16.065Z,100244.59
2022-10-11T07:38:08.536Z,100250.53
2022-10-11T07:41:06.620Z,100247.97
2022-10-11T07:43:57.874Z,100256.53
2022-10-11T07:46:55.779Z,100259.06
2022-10-11T07:49:46.226Z,100253.91
2022-10-11T07:52:38.206Z,100254.75
2022-10-11T07:55:31.444Z,100259.88
2022-10-11T07:58:26.378Z,100259.81
2022-10-11T08:01:15.660Z,100258.09
2022-10-11T08:04:16.455Z,100249.50
2022-10-11T08:07:16.418Z,100246.03
2022-10-11T08:10:08.900Z,100261.44
2022-10-11T08:13:04.112Z,100256.28
2022-10-11T08:16:10.428Z,100262.22
2022-10-11T08:19:05.186Z,100251.94
2022-10-11T08:21:55.325Z,100247.66
2022-10-11T08:24:46.277Z,100256.22
2022-10-11T08:27:41.506Z,100255.34
2022-10-11T08:30:33.293Z,100251.91
2022-10-11T08:33:28.194Z,100260.47
2022-10-11T08:36:24.060Z,100263.91
2022-10-11T08:39:14.058Z,100265.63
2022-10-11T08:42:08.149Z,100263.91
2022-10-11T08:45:11.457Z,100265.56
2022-10-11T08:48:19.114Z,100265.50
2022-10-11T08:51:22.929Z,100275.78
2022-10-11T08:54:22.574Z,100280.88
2022-10-11T08:57:26.220Z,100280.91
2022-10-11T09:00:34.563Z,100285.97
2022-10-11T09:03:12.466Z,100281.66
2022-10-11T09:05:54.056Z,100284.19
2022-10-11T09:08:31.920Z,100288.47
2022-10-11T09:11:05.304Z,100290.13
2022-10-11T09:13:52.588Z,100293.53
2022-10-11T09:16:31.372Z,100288.41
2022-10-11T09:19:31.411Z,100276.44
2022-10-11T09:22:08.754Z,100290.03
2022-10-11T09:25:04.553Z,100289.97
2022-10-11T09:28:01.389Z,100267.72
2022-10-11T09:30:27.114Z,100273.56
2022-10-11T09:33:11.401Z,100281.19
2022-10-11T09:35:43.836Z,100288.00
2022-10-11T09:38:23.241Z,100288.81
2022-10-11T09:41:07.329Z,100285.31
2022-10-11T09:43:36.620Z,100288.78
2022-10-11T09:46:05.466Z,100288.75
2022-10-11T09:48:43.437Z,100291.34
2022-10-11T09:51:16.290Z,100287.88
2022-10-11T09:53:53.604Z,100290.44
2022-10-11T09:56:22.957Z,100284.38
2022-10-11T09:59:08.744Z,100274.09
2022-10-11T10:01:39.221Z,100285.97
2022-10-11T10:04:14.234Z,100289.38
2022-10-11T10:06:42.981Z,100279.09
2022-10-11T10:09:26.644Z,100286.75
2022-10-11T10:11:56.120Z,100282.44
2022-10-11T10:14:28.528Z,100285.84
2022-10-11T10:17:06.032Z,100285.84
2022-10-11T10:19:44.963Z,100278.19
2022-10-11T10:22:19.411Z,100287.53
2022-10-11T10:24:50.587Z,100268.72
2022-10-11T10:27:24.611Z,100289.22
2022-10-11T10:30:14.621Z,100291.72
2022-10-11T10:32:53.431Z,100283.13
2022-10-11T10:35:32.914Z,100286.50
2022-10-11T10:38:14.281Z,100289.88
2022-10-11T10:40:46.493Z,100284.66
2022-10-11T10:43:17.764Z,100271.00
2022-10-11T10:46:10.961Z,100287.91
2022-10-11T10:51:50.963Z,100284.81
2022-10-11T10:54:33.700Z,100298.53
2022-10-11T10:57:05.823Z,100293.34
2022-10-11T10:59:56.180Z,100286.47
2022-10-11T11:02:45.930Z,100288.97
2022-10-11T11:05:21.702Z,100284.63
2022-10-11T11:07:59.131Z,100284.53
2022-10-11T11:10:35.853Z,100288.78
2022-10-11T11:13:21.425Z,100284.41
2022-10-11T11:15:56.858Z,100277.44
2022-10-11T11:18:35.744Z,100269.47
2022-10-11T11:21:29.263Z,100274.34
2022-10-11T11:24:08.397Z,100276.34
2022-10-11T11:26:45.968Z,100222.88
2022-10-11T11:29:29.354Z,100265.91
2022-10-11T11:32:10.756Z,100268.13
2022-10-11T11:34:44.026Z,100269.53
2022-10-11T11:37:23.279Z,100261.78
2022-10-11T11:39:58.859Z,100261.00
2022-10-11T11:42:35.751Z,100254.84
2022-10-11T11:45:15.289Z,100257.94
2022-10-11T11:47:48.740Z,100252.50
2022-10-11T11:50:22.889Z,100261.03
2022-10-11T11:52:55.804Z,100185.16
2022-10-11T11:55:33.057Z,100247.91
2022-10-11T11:58:14.268Z,100244.09
2022-10-11T12:00:54.484Z,100247.13
2022-10-11T12:03:26.876Z,100243.81
2022-10-11T12:06:16.646Z,100247.81
2022-10-11T12:08:48.614Z,100235.47
2022-10-11T12:11:26.020Z,100233.34
2022-10-11T12:13:56.218Z,100233.03
2022-10-11T12:16:25.039Z,100229.41
2022-10-11T12:19:02.181Z,100229.00
2022-10-11T12:21:33.851Z,100231.78
2022-10-11T12:24:12.413Z,100226.41
2022-10-11T12:26:44.960Z,100232.94
2022-10-11T12:29:43.857Z,100231.81
2022-10-11T12:32:53.345Z,100234.28
2022-10-11T12:35:32.623Z,100232.13
2022-10-11T12:38:07.708Z,100229.09
2022-10-11T12:40:42.350Z,100228.78
2022-10-11T12:43:24.960Z,100233.84
2022-10-11T12:45:54.373Z,100229.09
2022-10-11T12:48:47.031Z,100234.47
2022-10-11T12:51:36.573Z,100238.25
2022-10-11T12:54:28.047Z,100238.25
2022-10-11T12:57:28.014Z,100235.81
2022-10-11T13:00:18.791Z,100225.53
2022-10-11T13:02:49.340Z,100228.25
2022-10-11T13:05:23.398Z,100228.50
2022-10-11T13:07:52.962Z,100208.78
2022-10-11T13:10:27.649Z,100213.31
2022-10-11T13:12:59.916Z,100213.78
2022-10-11T13:15:30.326Z,100216.25
2022-10-11T13:18:01.653Z,100210.72
2022-10-11T13:20:32.650Z,100213.09
2022-10-11T13:23:02.139Z,100219.63
2022-10-11T13:25:37.794Z,100209.88
2022-10-11T13:28:11.604Z,100212.16
2022-10-11T13:30:46.686Z,100209.34
2022-10-11T13:33:22.610Z,100212.50
2022-10-11T13:35:53.264Z,100209.13
2022-10-11T13:38:24.690Z,100209.34
2022-10-11T13:40:53.864Z,100199.44
2022-10-11T13:43:26.590Z,100214.06
2022-10-11T13:45:58.850Z,100211.91
2022-10-11T13:48:31.949Z,100212.25
2022-10-11T13:51:07.956Z,100213.00
2022-10-11T13:53:36.802Z,100211.66
2022-10-11T13:56:07.547Z,100211.88
2022-10-11T13:58:40.839Z,100207.41
2022-10-11T14:01:22.523Z,100208.28
2022-10-11T14:03:56.912Z,100203.47
2022-10-11T14:06:40.343Z,100207.84
2022-10-11T14:09:19.639Z,100204.47
2022-10-11T14:11:49.113Z,100201.16
2022-10-11T14:14:40.238Z,100200.22
2022-10-11T14:17:16.704Z,100208.28
2022-10-11T14:19:46.690Z,100208.13
2022-10-11T14:22:17.922Z,100214.03
2022-10-11T14:24:49.830Z,100205.69
2022-10-11T14:27:22.742Z,100199.19
2022-10-11T14:30:13.005Z,100199.66
2022-10-11T14:32:44.313Z,100205.09
2022-10-11T14:35:18.392Z,100212.19
2022-10-11T14:37:47.392Z,100214.16
2022-10-11T14:40:19.719Z,100215.22
2022-10-11T14:42:48.868Z,100210.19
2022-10-11T14:45:17.973Z,100212.16
2022-10-11T14:47:49.355Z,100223.41
2022-10-11T14:50:34.004Z,100222.78
2022-10-11T14:53:03.190Z,100227.28
2022-10-11T14:55:32.302Z,100224.88
2022-10-11T14:58:01.234Z,100230.13
2022-10-11T15:00:31.109Z,100225.94
2022-10-11T15:03:01.308Z,100229.53
2022-10-11T15:05:34.226Z,100223.63
2022-10-11T15:08:03.672Z,100228.06
2022-10-11T15:10:36.954Z,100234.16
2022-10-11T15:13:08.262Z,100224.78
2022-10-11T15:15:41.239Z,100232.59
2022-10-11T15:18:16.944Z,100229.28
2022-10-11T15:20:48.217Z,100228.53
2022-10-11T15:23:16.853Z,100226.91
2022-10-11T15:25:45.462Z,100227.91
2022-10-11T15:28:22.339Z,100223.75
2022-10-11T15:30:51.061Z,100229.88
2022-10-11T15:33:21.156Z,100225.81
2022-10-11T15:35:50.212Z,100231.00
2022-10-11T15:38:21.832Z,100239.72
2022-10-11T15:40:51.363Z,100239.84
2022-10-11T15:43:24.419Z,100245.13
2022-10-11T15:45:53.946Z,100248.69
2022-10-11T15:48:26.561Z,100237.63
2022-10-11T15:50:56.022Z,100235.19
2022-10-11T15:53:28.861Z,100245.63
2022-10-11T15:55:59.649Z,100244.03
2022-10-11T15:58:30.315Z,100247.56
2022-10-11T16:01:02.504Z,100229.84
2022-10-11T16:03:33.830Z,100248.63
2022-10-11T16:06:05.389Z,100235.13
2022-10-11T16:08:35.025Z,100248.03
2022-10-11T16:11:04.104Z,100245.56
2022-10-11T16:13:33.091Z,100259.47
2022-10-11T16:16:02.439Z,100253.59
2022-10-11T16:18:35.299Z,100260.66
2022-10-11T16:21:08.631Z,100260.72
2022-10-11T16:23:38.061Z,100250.50
2022-10-11T16:26:09.909Z,100259.16
2022-10-11T16:28:39.238Z,100256.69
2022-10-11T16:31:09.225Z,100271.31
2022-10-11T16:33:46.341Z,100268.03
2022-10-11T16:36:27.543Z,100280.97
2022-10-11T16:38:56.282Z,100276.75
2022-10-11T16:41:24.879Z,100286.22
2022-10-11T16:43:54.148Z,100281.13
2022-10-11T16:46:23.060Z,100280.41
2022-10-11T16:48:55.345Z,100285.63
2022-10-11T16:51:24.471Z,100284.91
2022-10-11T16:53:53.884Z,100288.41
2022-10-11T16:56:24.516Z,100296.19
2022-10-11T16:58:54.308Z,100298.84
2022-10-11T17:01:23.431Z,100298.91
2022-10-11T17:03:53.674Z,100305.78
2022-10-11T17:06:22.658Z,100299.81
2022-10-11T17:08:51.532Z,100298.13
2022-10-11T17:11:21.942Z,100303.31
2022-10-11T17:13:53.603Z,100303.31
2022-10-11T17:16:22.836Z,100306.81
2022-10-11T17:18:51.553Z,100307.69
2022-10-11T17:21:23.323Z,100302.63
2022-10-11T17:23:52.567Z,100306.91
2022-10-11T17:26:23.438Z,100312.09
2022-10-11T17:28:52.863Z,100310.44
2022-10-11T17:31:21.655Z,100317.34
2022-10-11T17:33:50.361Z,100317.41
2022-10-11T17:36:23.921Z,100312.34
2022-10-11T17:38:53.082Z,100317.50
2022-10-11T17:41:22.254Z,100312.34
2022-10-11T17:43:51.044Z,100315.81
2022-10-11T17:46:22.875Z,100319.25
2022-10-11T17:48:55.092Z,100322.72
2022-10-11T17:51:25.712Z,100331.28
2022-10-11T17:53:55.393Z,100324.47
2022-10-11T17:56:29.572Z,100321.13
2022-10-11T17:59:00.742Z,100316.13
2022-10-11T18:01:30.936Z,100326.38
2022-10-11T18:04:02.442Z,100320.41
2022-10-11T18:06:34.954Z,100326.41
2022-10-11T18:09:05.757Z,100322.97
2022-10-11T18:11:34.796Z,100330.66
2022-10-11T18:14:03.487Z,100332.41
2022-10-11T18:16:33.320Z,100332.44
2022-10-11T18:19:04.509Z,100338.47
2022-10-11T18:21:35.176Z,100335.09
2022-10-11T18:24:08.035Z,100331.69
2022-10-11T18:26:36.612Z,100336.81
2022-10-11T18:29:07.473Z,100325.72
2022-10-11T18:31:36.370Z,100319.81
2022-10-11T18:34:06.787Z,100333.47
2022-10-11T18:36:37.269Z,100340.31
2022-10-11T18:39:08.038Z,100340.38
2022-10-11T18:41:37.037Z,100347.22
2022-10-11T18:44:09.390Z,100338.66
2022-10-11T18:46:39.248Z,100347.19
2022-10-11T18:49:08.537Z,100341.22
2022-10-11T18:51:40.968Z,100340.38
2022-10-11T18:54:18.315Z,100336.94
2022-10-11T18:56:50.481Z,100338.63
2022-10-11T18:59:20.646Z,100335.25
2022-10-11T19:01:52.445Z,100338.66
2022-10-11T19:04:22.004Z,100330.13
2022-10-11T19:06:53.768Z,100330.13
2022-10-11T19:09:26.310Z,100330.13
2022-10-11T19:11:57.450Z,100331.00
2022-10-11T19:14:28.558Z,100333.53
2022-10-11T19:16:58.869Z,100338.69
2022-10-11T19:19:33.241Z,100337.81
2022-10-11T19:22:04.020Z,100340.38
2022-10-11T19:24:33.547Z,100343.81
2022-10-11T19:27:03.172Z,100342.09
2022-10-11T19:29:32.950Z,100343.78
2022-10-11T19:32:04.385Z,100347.19
2022-10-11T19:34:33.364Z,100351.47
2022-10-11T19:37:04.459Z,100348.88
2022-10-11T19:39:33.367Z,100356.56
2022-10-11T19:42:02.761Z,100348.03
2022-10-11T19:44:35.710Z,100354.81
2022-10-11T19:47:07.762Z,100359.09
2022-10-11T19:49:36.305Z,100354.81
2022-10-11T19:52:06.400Z,100357.38
2022-10-11T19:54:35.159Z,100339.41
2022-10-11T19:57:03.727Z,100353.97
2022-10-11T19:59:32.429Z,100354.84
2022-10-11T20:02:01.107Z,100355.72
2022-10-11T20:07:20.117Z,100358.25
2022-10-11T20:09:49.352Z,100364.22
2022-10-11T20:12:18.142Z,100355.69
2022-10-11T20:14:46.981Z,100359.97
2022-10-11T20:17:16.282Z,100354.00
2022-10-11T20:19:44.917Z,100345.47
2022-10-11T20:22:13.619Z,100349.75
2022-10-11T20:24:43.518Z,100355.72
2022-10-11T20:27:12.230Z,100365.94
2022-10-11T20:29:40.870Z,100362.53
2022-10-11T20:32:09.518Z,100365.97
2022-10-11T20:34:39.712Z,100362.53
2022-10-11T20:37:08.371Z,100362.56
2022-10-11T20:39:37.130Z,100365.97
2022-10-11T20:42:07.239Z,100367.69
2022-10-11T20:44:35.910Z,100371.09
2022-10-11T20:47:04.540Z,100366.84
2022-10-11T20:49:33.383Z,100354.91
2022-10-11T20:52:02.063Z,100366.84
2022-10-11T20:54:31.942Z,100366.84
2022-10-11T20:57:00.769Z,100361.72
2022-10-11T20:59:30.970Z,100364.25
2022-10-11T21:01:59.904Z,100371.94
2022-10-11T21:04:28.418Z,100376.22
2022-10-11T21:06:57.118Z,100371.97
2022-10-11T21:09:26.194Z,100369.38
2022-10-11T21:11:54.781Z,100365.97
2022-10-11T21:14:23.952Z,100361.69
2022-10-11T21:16:53.939Z,100371.91
2022-10-11T21:19:22.530Z,100365.97
2022-10-11T21:21:53.811Z,100372.78
2022-10-11T21:24:23.265Z,100373.63
2022-10-11T21:26:51.776Z,100369.38
2022-10-11T21:29:20.411Z,100365.94
2022-10-11T21:31:48.919Z,100371.91
2022-10-11T21:34:18.948Z,100374.50
2022-10-11T21:36:47.488Z,100352.28
2022-10-11T21:39:16.456Z,100371.06
2022-10-11T21:41:45.191Z,100370.19
2022-10-11T21:44:14.072Z,100365.09
2022-10-11T21:47:05.629Z,100364.22
2022-10-11T21:49:32.959Z,100371.91
2022-10-11T21:52:01.783Z,100366.75
2022-10-11T21:54:30.370Z,100365.00
2022-10-11T21:56:59.770Z,100370.97
2022-10-11T21:59:28.340Z,100368.41
2022-10-11T22:02:01.465Z,100371.81
2022-10-11T22:04:32.391Z,100369.25
2022-10-11T22:07:01.079Z,100367.56
2022-10-11T22:09:30.053Z,100369.28
2022-10-11T22:11:58.694Z,100365.00
2022-10-11T22:14:28.560Z,100369.28
2022-10-11T22:16:57.078Z,100358.19
2022-10-11T22:19:26.069Z,100362.44
2022-10-11T22:21:55.995Z,100365.84
2022-10-11T22:24:24.648Z,100369.25
2022-10-11T22:26:53.141Z,100356.41
2022-10-11T22:29:21.921Z,100364.97
2022-10-11T22:31:50.580Z,100368.34
2022-10-11T22:34:19.248Z,100372.63
2022-10-11T22:36:47.832Z,100365.78
2022-10-11T22:39:17.770Z,100371.78
2022-10-11T22:41:46.389Z,100372.63
2022-10-11T22:44:15.550Z,100356.38
2022-10-11T22:46:44.391Z,100377.72
2022-10-11T22:49:13.290Z,100374.31
2022-10-11T22:51:42.004Z,100372.63
2022-10-11T22:54:11.901Z,100375.19
2022-10-11T22:56:42.240Z,100377.75
2022-10-11T22:59:11.096Z,100381.16
2022-10-11T23:01:39.782Z,100371.75
2022-10-11T23:04:08.669Z,100372.63
2022-10-11T23:06:37.322Z,100376.03
2022-10-11T23:09:06.003Z,100370.91
2022-10-11T23:11:34.611Z,100370.06
2022-10-11T23:14:04.723Z,100370.06
2022-10-11T23:16:35.931Z,100373.44
2022-10-11T23:19:04.694Z,100364.94
2022-10-11T23:21:33.521Z,100368.34
2022-10-11T23:24:02.185Z,100369.19
2022-10-11T23:26:30.810Z,100369.16
2022-10-11T23:28:59.520Z,100372.63
2022-10-11T23:31:30.330Z,100376.00
2022-10-11T23:33:59.421Z,100361.47
2022-10-11T23:36:28.022Z,100384.53
2022-10-11T23:38:58.209Z,100385.41
2022-10-11T23:41:28.996Z,100393.94
2022-10-11T23:43:58.639Z,100397.34
2022-10-11T23:46:27.313Z,100406.72
2022-10-11T23:48:57.652Z,100406.72
2022-10-11T23:51:26.419Z,100395.66
2022-10-11T23:53:55.083Z,100395.66
2022-10-11T23:56:24.211Z,100397.41
2022-10-11T23:58:53.290Z,100356.34
